MET'MAP v2.0
soon released !

Expected late october,
this new version will be
more efficient, smarter,
and hosted on a brand new
server x3 powerfull...
...and still free !


Not compatible ?
Try the mobile version !

LOG IN : | Subscribe | Disclaimer | Who is Orbifly ? |
ICAO code :

TAF - EPKS Poznan-Krzesiny - 28 Feb 2020 01:27 UTC - Data Source NOAA   


- Airport Elevation : 265 ft
- No reported NOTAMs.


EPKS - Poznan-Krzesiny

NO METAR
TAF TAF EPKS
Valid from the 28 at 00:00 until the 28 at 09:00 UTC


272300Z 2800/2809 VRB03KT 6000 BKN030
TEMPO 2800/2807 4000 BR
PROB30
TEMPO 2804/2807 2500 BR BKN006
BECMG 2807/2809 27010KT 9999 BKN015

Source NOAA


MET'MAP, your aeronautical weather chart ! - Copyright ORBIFLY December 2007

Programming & Development : Alexandra Zaïnal
Co-Developer : Marc-Olivier Méhu
Technical & hardware support : Manuel Goepfert
Concept & Financing : Baudouin d'Aumeries